createdAt,value
2018-09-18T00:01:05.739Z,9.97
2018-09-18T00:03:36.513Z,12.93
2018-09-18T00:06:07.241Z,11.67
2018-09-18T00:08:37.996Z,10.97
2018-09-18T00:11:08.745Z,13.03
2018-09-18T00:13:39.462Z,11.60
2018-09-18T00:16:10.170Z,12.10
2018-09-18T00:18:40.991Z,11.60
2018-09-18T00:21:11.730Z,10.40
2018-09-18T00:23:42.534Z,11.63
2018-09-18T00:26:13.245Z,10.87
2018-09-18T00:28:44.011Z,9.97
2018-09-18T00:31:14.753Z,11.30
2018-09-18T00:33:45.651Z,14.93
2018-09-18T00:36:16.470Z,10.43
2018-09-18T00:38:47.514Z,10.83
2018-09-18T00:41:18.256Z,9.97
2018-09-18T00:43:49.074Z,10.43
2018-09-18T00:46:19.911Z,12.40
2018-09-18T00:48:50.621Z,11.50
2018-09-18T00:51:21.453Z,11.90
2018-09-18T00:53:52.215Z,11.47
2018-09-18T00:56:22.934Z,11.93
2018-09-18T00:58:53.974Z,13.03
2018-09-18T01:01:24.750Z,13.07
2018-09-18T01:03:55.490Z,13.67
2018-09-18T01:06:26.343Z,12.60
2018-09-18T01:08:57.050Z,13.13
2018-09-18T01:11:27.779Z,12.90
2018-09-18T01:13:58.534Z,13.20
2018-09-18T01:16:29.250Z,11.97
2018-09-18T01:18:59.982Z,13.33
2018-09-18T01:21:30.705Z,12.77
2018-09-18T01:24:01.362Z,13.30
2018-09-18T01:26:32.011Z,12.37
2018-09-18T01:29:02.706Z,13.53
2018-09-18T01:31:33.450Z,13.03
2018-09-18T01:34:04.190Z,11.73
2018-09-18T01:36:35.094Z,12.23
2018-09-18T01:39:07.980Z,13.03
2018-09-18T01:41:38.805Z,12.13
2018-09-18T01:44:10.073Z,12.67
2018-09-18T01:46:40.870Z,12.50
2018-09-18T01:49:11.650Z,13.57
2018-09-18T01:51:42.410Z,12.07
2018-09-18T01:54:13.371Z,11.37
2018-09-18T01:56:44.233Z,13.10
2018-09-18T01:59:15.115Z,14.90
2018-09-18T02:01:45.890Z,11.80
2018-09-18T02:04:16.765Z,13.70
2018-09-18T02:06:47.557Z,12.20
2018-09-18T02:09:18.331Z,13.60
2018-09-18T02:11:49.355Z,13.60
2018-09-18T02:14:20.498Z,11.17
2018-09-18T02:16:51.295Z,11.13
2018-09-18T02:19:22.211Z,12.87
2018-09-18T02:21:52.964Z,13.37
2018-09-18T02:24:23.814Z,12.30
2018-09-18T02:26:54.635Z,13.33
2018-09-18T02:29:25.492Z,11.70
2018-09-18T02:31:56.319Z,12.77
2018-09-18T02:34:27.115Z,13.17
2018-09-18T02:36:57.892Z,14.63
2018-09-18T02:39:28.623Z,14.43
2018-09-18T02:41:59.346Z,13.90
2018-09-18T02:44:30.116Z,15.40
2018-09-18T02:47:00.907Z,16.73
2018-09-18T02:49:31.743Z,14.33
2018-09-18T02:52:02.610Z,14.77
2018-09-18T02:54:33.357Z,14.20
2018-09-18T02:57:04.153Z,14.73
2018-09-18T02:59:35.070Z,14.10
2018-09-18T03:02:05.890Z,15.10
2018-09-18T03:04:36.750Z,15.67
2018-09-18T03:07:07.574Z,14.90
2018-09-18T03:09:38.373Z,14.17
2018-09-18T03:12:09.408Z,14.30
2018-09-18T03:14:40.254Z,14.00
2018-09-18T03:17:11.092Z,13.77
2018-09-18T03:19:41.882Z,13.20
2018-09-18T03:22:12.723Z,14.83
2018-09-18T03:24:43.514Z,15.73
2018-09-18T03:27:14.264Z,15.07
2018-09-18T03:29:45.076Z,15.37
2018-09-18T03:32:15.961Z,14.33
2018-09-18T03:34:46.811Z,14.07
2018-09-18T03:37:17.643Z,14.33
2018-09-18T03:39:48.513Z,15.43
2018-09-18T03:42:19.374Z,15.47
2018-09-18T03:44:50.115Z,15.33
2018-09-18T03:47:22.765Z,13.30
2018-09-18T03:49:54.167Z,13.83
2018-09-18T03:52:25.057Z,14.43
2018-09-18T03:54:55.866Z,14.77
2018-09-18T03:57:26.797Z,14.83
2018-09-18T03:59:57.607Z,14.97
2018-09-18T04:02:28.711Z,14.43
2018-09-18T04:04:59.491Z,14.07
2018-09-18T04:07:30.539Z,13.27
2018-09-18T04:10:01.475Z,14.23
2018-09-18T04:12:32.223Z,16.03
2018-09-18T04:15:03.294Z,15.03
2018-09-18T04:17:34.312Z,14.30
2018-09-18T04:20:05.411Z,15.27
2018-09-18T04:22:36.172Z,16.43
2018-09-18T04:25:07.062Z,14.43
2018-09-18T04:27:38.177Z,12.97
2018-09-18T04:30:09.234Z,13.87
2018-09-18T04:32:40.054Z,16.87
2018-09-18T04:35:10.977Z,13.33
2018-09-18T04:37:41.775Z,14.07
2018-09-18T04:40:12.551Z,14.30
2018-09-18T04:42:43.231Z,15.23
2018-09-18T04:45:14.385Z,15.53
2018-09-18T04:47:45.576Z,15.30
2018-09-18T04:50:16.402Z,15.67
2018-09-18T04:52:47.218Z,14.17
2018-09-18T04:55:18.124Z,14.53
2018-09-18T04:57:49.215Z,15.47
2018-09-18T05:00:20.059Z,14.13
2018-09-18T05:02:50.995Z,15.43
2018-09-18T05:05:21.988Z,15.33
2018-09-18T05:07:52.823Z,16.33
2018-09-18T05:10:23.595Z,14.07
2018-09-18T05:12:54.776Z,15.03
2018-09-18T05:15:25.535Z,17.47
2018-09-18T05:17:56.395Z,17.27
2018-09-18T05:20:27.278Z,18.57
2018-09-18T05:22:58.167Z,15.37
2018-09-18T05:25:29.226Z,17.20
2018-09-18T05:28:00.171Z,16.97
2018-09-18T05:30:30.951Z,16.23
2018-09-18T05:33:01.775Z,15.27
2018-09-18T05:35:32.645Z,14.67
2018-09-18T05:38:03.514Z,14.60
2018-09-18T05:40:34.422Z,15.40
2018-09-18T05:43:05.847Z,15.57
2018-09-18T05:45:36.724Z,16.87
2018-09-18T05:48:07.675Z,17.00
2018-09-18T05:50:38.558Z,16.53
2018-09-18T05:53:09.955Z,16.33
2018-09-18T05:55:40.867Z,15.73
2018-09-18T05:58:12.029Z,15.57
2018-09-18T06:00:42.928Z,16.43
2018-09-18T06:03:13.743Z,15.37
2018-09-18T06:05:44.595Z,14.93
2018-09-18T06:08:15.432Z,14.53
2018-09-18T06:10:46.175Z,19.17
2018-09-18T06:13:17.036Z,15.57
2018-09-18T06:15:47.910Z,14.73
2018-09-18T06:18:18.990Z,12.40
2018-09-18T06:20:49.894Z,15.03
2018-09-18T06:23:20.830Z,14.33
2018-09-18T06:25:51.791Z,15.70
2018-09-18T06:28:23.074Z,19.23
2018-09-18T06:30:54.105Z,16.87
2018-09-18T06:33:25.071Z,15.03
2018-09-18T06:35:56.010Z,14.97
2018-09-18T06:38:26.830Z,13.50
2018-09-18T06:40:57.815Z,14.60
2018-09-18T06:43:28.818Z,14.73
2018-09-18T06:45:59.582Z,14.33
2018-09-18T06:48:30.537Z,13.73
2018-09-18T06:51:01.364Z,14.30
2018-09-18T06:53:32.110Z,13.30
2018-09-18T06:56:02.916Z,13.43
2018-09-18T06:58:33.777Z,14.80
2018-09-18T07:01:04.737Z,13.30
2018-09-18T07:03:37.898Z,14.13
2018-09-18T07:06:08.831Z,13.00
2018-09-18T07:08:39.653Z,13.03
2018-09-18T07:11:10.821Z,18.30
2018-09-18T07:13:41.665Z,13.83
2018-09-18T07:16:12.593Z,13.27
2018-09-18T07:18:43.467Z,13.03
2018-09-18T07:21:14.261Z,12.40
2018-09-18T07:23:45.254Z,12.47
2018-09-18T07:26:16.044Z,11.90
2018-09-18T07:28:46.891Z,16.97
2018-09-18T07:31:17.701Z,10.90
2018-09-18T07:33:48.546Z,11.63
2018-09-18T07:36:19.354Z,14.77
2018-09-18T07:38:50.750Z,10.90
2018-09-18T07:41:21.593Z,14.17
2018-09-18T07:43:53.338Z,10.03
2018-09-18T07:46:24.211Z,10.80
2018-09-18T07:48:59.049Z,10.93
2018-09-18T07:51:30.355Z,10.87
2018-09-18T07:54:01.876Z,10.53
2018-09-18T07:56:32.934Z,10.33
2018-09-18T07:59:03.867Z,9.80
2018-09-18T08:01:34.682Z,9.47
2018-09-18T08:04:05.568Z,9.97
2018-09-18T08:06:36.462Z,10.07
2018-09-18T08:09:11.287Z,10.47
2018-09-18T08:11:42.099Z,10.40
2018-09-18T08:14:12.947Z,11.10
2018-09-18T08:16:43.717Z,9.07
2018-09-18T08:19:14.587Z,9.10
2018-09-18T08:21:45.335Z,9.03
2018-09-18T08:24:16.157Z,8.60
2018-09-18T08:26:46.929Z,8.00
2018-09-18T08:29:17.716Z,8.00
2018-09-18T08:31:48.706Z,8.33
2018-09-18T08:34:19.495Z,7.40
2018-09-18T08:36:50.458Z,8.13
2018-09-18T08:39:21.256Z,8.13
2018-09-18T08:41:52.070Z,7.50
2018-09-18T08:44:22.935Z,8.00
2018-09-18T08:46:53.787Z,7.83
2018-09-18T08:49:24.539Z,7.23
2018-09-18T08:51:55.388Z,8.10
2018-09-18T08:54:26.175Z,7.80
2018-09-18T08:56:57.077Z,7.70
2018-09-18T08:59:27.894Z,7.87
2018-09-18T09:01:58.698Z,8.67
2018-09-18T09:04:29.592Z,7.70
2018-09-18T09:07:00.405Z,7.33
2018-09-18T09:09:31.154Z,7.20
2018-09-18T09:12:01.817Z,7.40
2018-09-18T09:14:32.690Z,10.13
2018-09-18T09:17:03.355Z,8.50
2018-09-18T09:19:34.179Z,7.70
2018-09-18T09:22:05.120Z,7.57
2018-09-18T09:24:35.798Z,8.13
2018-09-18T09:27:06.594Z,7.90
2018-09-18T09:29:37.463Z,8.00
2018-09-18T09:32:08.272Z,8.13
2018-09-18T09:34:39.047Z,7.20
2018-09-18T09:37:09.903Z,7.27
2018-09-18T09:39:40.611Z,7.17
2018-09-18T09:42:11.351Z,8.67
2018-09-18T09:44:42.218Z,8.10
2018-09-18T09:47:13.196Z,7.73
2018-09-18T09:49:44.007Z,7.97
2018-09-18T09:52:14.893Z,7.77
2018-09-18T09:54:45.663Z,8.43
2018-09-18T09:57:16.651Z,7.37
2018-09-18T09:59:47.398Z,7.50
2018-09-18T10:02:19.633Z,7.70
2018-09-18T10:04:50.415Z,7.63
2018-09-18T10:07:21.365Z,7.00
2018-09-18T10:09:52.324Z,7.60
2018-09-18T10:12:23.179Z,7.43
2018-09-18T10:14:54.065Z,7.37
2018-09-18T10:17:25.096Z,9.73
2018-09-18T10:19:55.922Z,7.93
2018-09-18T10:22:26.686Z,7.47
2018-09-18T10:24:57.599Z,7.33
2018-09-18T10:27:28.525Z,8.60
2018-09-18T10:29:59.599Z,8.83
2018-09-18T10:32:30.475Z,7.43
2018-09-18T10:35:01.338Z,7.50
2018-09-18T10:37:32.193Z,8.00
2018-09-18T10:40:03.043Z,7.60
2018-09-18T10:42:33.957Z,10.13
2018-09-18T10:45:05.330Z,7.90
2018-09-18T10:47:36.155Z,7.17
2018-09-18T10:50:07.497Z,7.47
2018-09-18T10:52:38.299Z,6.90
2018-09-18T10:55:09.196Z,7.03
2018-09-18T10:57:40.098Z,6.90
2018-09-18T11:00:11.177Z,7.00
2018-09-18T11:02:42.224Z,7.00
2018-09-18T11:05:13.078Z,7.07
2018-09-18T11:07:43.922Z,7.00
2018-09-18T11:10:14.727Z,6.97
2018-09-18T11:12:45.556Z,6.67
2018-09-18T11:15:16.355Z,7.23
2018-09-18T11:17:47.155Z,6.90
2018-09-18T11:20:18.341Z,7.47
2018-09-18T11:22:49.137Z,7.10
2018-09-18T11:25:19.962Z,8.53
2018-09-18T11:27:50.838Z,7.17
2018-09-18T11:30:21.820Z,6.00
2018-09-18T11:32:52.760Z,6.63
2018-09-18T11:35:23.645Z,6.77
2018-09-18T11:37:54.526Z,7.33
2018-09-18T11:40:25.367Z,7.20
2018-09-18T11:42:56.236Z,7.10
2018-09-18T11:45:27.035Z,6.87
2018-09-18T11:47:58.069Z,8.73
2018-09-18T11:50:28.978Z,9.50
2018-09-18T11:53:00.649Z,8.27
2018-09-18T11:55:31.549Z,8.63
2018-09-18T11:58:02.242Z,8.13
2018-09-18T12:00:33.119Z,8.10
2018-09-18T12:03:03.898Z,7.60
2018-09-18T12:05:34.835Z,7.07
2018-09-18T12:08:05.535Z,7.77
2018-09-18T12:10:36.276Z,7.07
2018-09-18T12:13:06.998Z,7.63
2018-09-18T12:15:37.885Z,8.13
2018-09-18T12:18:08.708Z,9.43
2018-09-18T12:20:39.704Z,7.87
2018-09-18T12:23:10.603Z,7.53
2018-09-18T12:25:41.598Z,9.63
2018-09-18T12:28:12.436Z,8.37
2018-09-18T12:30:43.369Z,7.40
2018-09-18T12:33:14.220Z,7.27
2018-09-18T12:35:45.157Z,7.07
2018-09-18T12:38:15.908Z,7.63
2018-09-18T12:40:46.714Z,7.20
2018-09-18T12:43:17.628Z,9.80
2018-09-18T12:45:48.511Z,8.20
2018-09-18T12:48:19.317Z,9.53
2018-09-18T12:50:50.189Z,9.10
2018-09-18T12:53:21.015Z,7.37
2018-09-18T12:55:52.700Z,7.47
2018-09-18T12:58:23.800Z,7.40
2018-09-18T13:00:54.788Z,7.93
2018-09-18T13:03:25.647Z,8.73
2018-09-18T13:05:56.572Z,7.73
2018-09-18T13:08:27.538Z,6.90
2018-09-18T13:10:58.581Z,7.47
2018-09-18T13:13:29.717Z,9.60
2018-09-18T13:16:00.714Z,7.77
2018-09-18T13:18:32.014Z,10.27
2018-09-18T13:21:02.837Z,10.03
2018-09-18T13:23:33.740Z,7.60
2018-09-18T13:26:04.635Z,7.07
2018-09-18T13:28:35.469Z,6.77
2018-09-18T13:31:06.341Z,8.30
2018-09-18T13:33:37.119Z,9.50
2018-09-18T13:36:08.109Z,7.03
2018-09-18T13:38:38.877Z,9.13
2018-09-18T13:41:10.011Z,8.13
2018-09-18T13:46:25.676Z,7.73
2018-09-18T13:52:25.758Z,9.70
2018-09-18T13:55:01.594Z,7.57
2018-09-18T13:57:32.578Z,8.33
2018-09-18T14:00:03.647Z,10.60
2018-09-18T14:02:34.511Z,7.73
2018-09-18T14:05:05.373Z,8.57
2018-09-18T14:07:36.177Z,8.87
2018-09-18T14:10:09.525Z,7.87
2018-09-18T14:12:40.567Z,8.37
2018-09-18T14:15:11.533Z,7.67
2018-09-18T14:17:42.315Z,9.37
2018-09-18T14:20:13.293Z,8.00
2018-09-18T14:22:44.038Z,7.70
2018-09-18T14:25:15.636Z,9.37
2018-09-18T14:27:46.527Z,7.57
2018-09-18T14:30:17.379Z,7.17
2018-09-18T14:32:48.102Z,8.70
2018-09-18T14:35:18.848Z,6.33
2018-09-18T14:37:49.656Z,6.57
2018-09-18T14:40:20.744Z,6.10
2018-09-18T14:42:51.454Z,7.13
2018-09-18T14:45:22.469Z,8.63
2018-09-18T14:47:53.517Z,7.07
2018-09-18T14:50:26.159Z,6.70
2018-09-18T14:52:57.514Z,12.10
2018-09-18T14:55:28.695Z,6.53
2018-09-18T14:57:59.645Z,8.30
2018-09-18T15:00:30.701Z,8.27
2018-09-18T15:03:01.693Z,6.57
2018-09-18T15:05:32.585Z,8.90
2018-09-18T15:08:04.673Z,9.50
2018-09-18T15:10:35.813Z,10.27
2018-09-18T15:13:06.737Z,10.20
2018-09-18T15:15:37.663Z,7.10
2018-09-18T15:18:08.569Z,8.90
2018-09-18T15:20:39.430Z,7.90
2018-09-18T15:23:10.954Z,8.60
2018-09-18T15:25:43.022Z,8.40
2018-09-18T15:28:15.971Z,8.77
2018-09-18T15:30:46.765Z,8.47
2018-09-18T15:33:17.618Z,8.50
2018-09-18T15:35:50.566Z,8.03
2018-09-18T15:38:21.514Z,18.03
2018-09-18T15:40:52.349Z,8.20
2018-09-18T15:43:23.210Z,9.37
2018-09-18T15:45:54.384Z,12.70
2018-09-18T15:48:25.448Z,9.90
2018-09-18T15:50:56.393Z,9.90
2018-09-18T15:53:27.437Z,8.57
2018-09-18T15:55:58.549Z,8.47
2018-09-18T15:58:29.425Z,9.17
2018-09-18T16:01:00.339Z,8.90
2018-09-18T16:03:31.198Z,8.90
2018-09-18T16:06:02.118Z,8.70
2018-09-18T16:08:33.458Z,9.43
2018-09-18T16:11:04.481Z,10.17
2018-09-18T16:13:36.232Z,8.63
2018-09-18T16:16:07.628Z,11.93
2018-09-18T16:18:38.666Z,8.83
2018-09-18T16:21:09.903Z,8.83
2018-09-18T16:23:40.733Z,9.23
2018-09-18T16:26:11.714Z,10.10
2018-09-18T16:28:43.508Z,8.73
2018-09-18T16:31:14.278Z,7.53
2018-09-18T16:33:45.204Z,7.60
2018-09-18T16:36:16.116Z,7.77
2018-09-18T16:38:46.992Z,6.67
2018-09-18T16:41:18.437Z,7.77
2018-09-18T16:43:49.258Z,6.70
2018-09-18T16:46:21.228Z,7.43
2018-09-18T16:48:52.532Z,9.13
2018-09-18T16:51:23.742Z,6.53
2018-09-18T16:53:54.699Z,12.83
2018-09-18T16:56:26.756Z,5.73
2018-09-18T16:58:57.767Z,5.60
2018-09-18T17:01:30.938Z,6.97
2018-09-18T17:04:02.057Z,5.77
2018-09-18T17:06:33.676Z,10.53
2018-09-18T17:09:07.296Z,7.80
2018-09-18T17:11:39.346Z,7.53
2018-09-18T17:14:10.300Z,7.53
2018-09-18T17:16:43.856Z,9.73
2018-09-18T17:19:15.258Z,9.00
2018-09-18T17:21:46.678Z,12.97
2018-09-18T17:24:18.446Z,8.43
2018-09-18T17:26:50.705Z,10.10
2018-09-18T17:29:21.962Z,8.30
2018-09-18T17:31:52.794Z,9.00
2018-09-18T17:34:24.026Z,8.57
2018-09-18T17:36:54.998Z,10.13
2018-09-18T17:39:26.955Z,11.43
2018-09-18T17:41:58.630Z,8.90
2018-09-18T17:44:29.535Z,7.80
2018-09-18T17:47:04.976Z,11.90
2018-09-18T17:49:36.390Z,9.80
2018-09-18T17:52:08.956Z,7.90
2018-09-18T17:54:41.077Z,8.33
2018-09-18T17:57:12.542Z,7.20
2018-09-18T17:59:44.085Z,8.43
2018-09-18T18:02:15.571Z,6.50
2018-09-18T18:04:49.229Z,6.90
2018-09-18T18:07:20.890Z,7.17
2018-09-18T18:09:52.357Z,6.13
2018-09-18T18:12:25.622Z,6.80
2018-09-18T18:14:57.095Z,7.03
2018-09-18T18:17:28.667Z,7.93
2018-09-18T18:20:00.325Z,6.57
2018-09-18T18:22:33.122Z,6.17
2018-09-18T18:25:05.301Z,6.77
2018-09-18T18:27:38.111Z,6.50
2018-09-18T18:30:09.629Z,7.43
2018-09-18T18:32:41.415Z,5.67
2018-09-18T18:35:12.908Z,4.73
2018-09-18T18:37:44.546Z,4.67
2018-09-18T18:40:16.713Z,5.37
2018-09-18T18:42:48.272Z,5.07
2018-09-18T18:45:19.735Z,5.50
2018-09-18T18:47:51.703Z,4.63
2018-09-18T18:50:25.668Z,4.70
2018-09-18T18:52:57.534Z,4.33
2018-09-18T18:55:29.191Z,4.20
2018-09-18T18:58:02.318Z,3.57
2018-09-18T19:00:34.787Z,5.23
2018-09-18T19:03:07.587Z,5.40
2018-09-18T19:05:39.800Z,4.57
2018-09-18T19:08:14.248Z,3.93
2018-09-18T19:10:45.987Z,3.13
2018-09-18T19:13:18.395Z,3.77
2018-09-18T19:15:52.355Z,5.03
2018-09-18T19:18:24.797Z,3.70
2018-09-18T19:20:56.512Z,4.70
2018-09-18T19:23:28.841Z,7.73
2018-09-18T19:26:00.387Z,4.00
2018-09-18T19:28:33.344Z,6.10
2018-09-18T19:31:05.954Z,4.50
2018-09-18T19:33:38.633Z,3.97
2018-09-18T19:36:11.988Z,4.00
2018-09-18T19:38:44.031Z,4.30
2018-09-18T19:41:16.390Z,5.93
2018-09-18T19:43:47.987Z,4.60
2018-09-18T19:46:19.464Z,4.73
2018-09-18T19:48:52.876Z,4.73
2018-09-18T19:51:25.011Z,4.83
2018-09-18T19:53:57.698Z,6.77
2018-09-18T19:56:29.770Z,5.20
2018-09-18T19:59:02.439Z,6.10
2018-09-18T20:01:34.524Z,5.30
2018-09-18T20:04:06.978Z,5.80
2018-09-18T20:06:40.292Z,5.13
2018-09-18T20:09:12.861Z,5.93
2018-09-18T20:11:45.210Z,5.73
2018-09-18T20:14:17.489Z,6.17
2018-09-18T20:16:49.065Z,8.07
2018-09-18T20:19:21.359Z,6.83
2018-09-18T20:21:52.952Z,4.60
2018-09-18T20:24:24.790Z,5.70
2018-09-18T20:26:57.413Z,6.13
2018-09-18T20:29:30.511Z,5.70
2018-09-18T20:32:02.628Z,8.37
2018-09-18T20:34:34.835Z,6.67
2018-09-18T20:37:06.125Z,6.30
2018-09-18T20:39:37.076Z,5.87
2018-09-18T20:42:08.305Z,5.70
2018-09-18T20:44:40.195Z,6.53
2018-09-18T20:47:11.027Z,5.93
2018-09-18T20:49:41.821Z,6.53
2018-09-18T20:52:12.639Z,4.90
2018-09-18T20:54:45.223Z,7.20
2018-09-18T20:57:16.039Z,6.90
2018-09-18T20:59:46.909Z,5.33
2018-09-18T21:02:17.786Z,7.53
2018-09-18T21:04:48.735Z,5.43
2018-09-18T21:07:19.619Z,6.13
2018-09-18T21:09:50.502Z,5.93
2018-09-18T21:12:21.384Z,4.20
2018-09-18T21:14:52.179Z,4.73
2018-09-18T21:17:23.016Z,4.10
2018-09-18T21:19:53.886Z,5.07
2018-09-18T21:22:24.932Z,5.33
2018-09-18T21:25:11.603Z,4.80
2018-09-18T21:27:43.155Z,6.20
2018-09-18T21:30:14.897Z,4.53
2018-09-18T21:32:45.706Z,7.60
2018-09-18T21:35:16.433Z,3.97
2018-09-18T21:37:47.119Z,5.17
2018-09-18T21:40:18.044Z,4.70
2018-09-18T21:42:48.759Z,3.83
2018-09-18T21:45:19.578Z,4.20
2018-09-18T21:47:50.338Z,4.20
2018-09-18T21:50:21.970Z,5.90
2018-09-18T21:52:52.795Z,4.83
2018-09-18T21:55:23.977Z,5.83
2018-09-18T21:57:54.989Z,4.77
2018-09-18T22:00:25.954Z,4.73
2018-09-18T22:02:56.715Z,5.50
2018-09-18T22:05:27.452Z,5.20
2018-09-18T22:07:58.311Z,6.53
2018-09-18T22:10:29.336Z,4.70
2018-09-18T22:13:01.001Z,7.70
2018-09-18T22:15:32.420Z,4.23
2018-09-18T22:18:03.285Z,5.00
2018-09-18T22:20:34.080Z,4.70
2018-09-18T22:23:04.942Z,5.97
2018-09-18T22:25:35.849Z,5.70
2018-09-18T22:28:06.643Z,5.50
2018-09-18T22:30:37.372Z,8.70
2018-09-18T22:33:08.205Z,4.80
2018-09-18T22:35:38.978Z,5.40
2018-09-18T22:38:09.665Z,6.93
2018-09-18T22:40:40.860Z,6.63
2018-09-18T22:43:11.743Z,4.53
2018-09-18T22:45:42.491Z,4.47
2018-09-18T22:48:13.214Z,6.17
2018-09-18T22:50:44.055Z,4.40
2018-09-18T22:53:14.892Z,4.43
2018-09-18T22:55:45.574Z,5.63
2018-09-18T22:58:16.408Z,5.10
2018-09-18T23:00:47.115Z,4.10
2018-09-18T23:03:18.167Z,5.20
2018-09-18T23:05:50.003Z,6.53
2018-09-18T23:08:20.724Z,4.67
2018-09-18T23:10:51.475Z,5.33
2018-09-18T23:13:22.356Z,5.17
2018-09-18T23:15:53.025Z,4.00
2018-09-18T23:18:23.750Z,4.13
2018-09-18T23:20:54.471Z,5.57
2018-09-18T23:23:25.196Z,5.57
2018-09-18T23:25:55.940Z,5.00
2018-09-18T23:28:26.627Z,6.03
2018-09-18T23:30:57.411Z,4.93
2018-09-18T23:33:28.132Z,5.60
2018-09-18T23:35:58.927Z,5.20
2018-09-18T23:38:29.665Z,5.07
2018-09-18T23:41:00.452Z,6.63
2018-09-18T23:43:31.246Z,6.77
2018-09-18T23:46:01.959Z,5.53
2018-09-18T23:48:32.715Z,7.57
2018-09-18T23:51:03.415Z,8.93
2018-09-18T23:53:34.222Z,5.37
2018-09-18T23:56:04.914Z,5.80
2018-09-18T23:58:35.766Z,8.30
